Holly Pond, Alabama
Current Conditions -  °F | °C
As of 12:35 PM on Thursday 30 Oct 2014 (Local Time) from KCMD Reporting Station
Clear Clear  
Wind Chill: 61°   Ceiling: Unl
Heat Index: 61°   Visibility: 10mi
Dew Point: 35°   Wind: 5mph
Humidity: 39%   Direction: 10°N
Pressure: 30.12"   Gusts: NA
Location:  34.17°N, 86.62°W
Report Text: KCMD 301735Z AUTO 01004KT 10SM CLR 16/02 A3012 RMK AO2 T01590018
Loading
Personal Weather Stations






























Interactive Weather Map
Tropical Storm Tracking
New forecast layout! Learn more

10-Day Weather Forecast

Advertisements
Track Severe Weather on mobile